General Aviation Weather

Text Reports

Enter one or more of the following location identifiers separated by a space:

Zip Code, Four-Character ICAO or Three-Character IATA airport codes.

METAR - Aviation Routine Weather Report
KMGG - Maple Lake, Minnesota
Updated at 2:15 AM GMT on January 27, 2015 (8:15 PM CST):
METAR KMGG 270215Z AUTO 30007KT 10SM OVC030 02/00 A2992 RMK AO2 T00231005
TAF - Terminal Area Forecast
KMGG - Maple Lake, Minnesota
Updated at 2:15 AM GMT on January 27, 2015 (8:15 PM CST):
No TAF is currently available for this location.
Decoded:
No decoded TAF is available.
PIREP - Pilot Weather Report
KMGG - Maple Lake, Minnesota
Updated at 2:15 AM GMT on January 27, 2015 (8:15 PM CST):
No PIREP is currently available for this location.
AIRMET - Airmens Meteorological Information
KMGG - Maple Lake, Minnesota
Updated at 2:15 AM GMT on January 27, 2015 (8:15 PM CST):
No AIRMET is currently available for this location.
SIGMET - Significant Meteorological Information
KMGG - Maple Lake, Minnesota
Updated at 2:15 AM GMT on January 27, 2015 (8:15 PM CST):
No SIGMET is currently available for this location.
NOTAM - Notice to Airmen
KMGG - Maple Lake, Minnesota
Updated at 2:15 AM GMT on January 27, 2015 (8:15 PM CST):
No NOTAM is currently available for this location.
Forecast Area
KMGG - Maple Lake, Minnesota
Updated at 2:15 AM GMT on January 27, 2015 (8:15 PM CST):
No NOTAM is currently available for this location.
Aviation Weather Maps